Time;durP1;ratioP1;P1;durP2;ratioP2;P2;SDS_P1;SDS_P2;PMS_P1;PMS_P2;Temp;Humidity;BMP_temperature;BMP_pressure;BME280_temperature;BME280_humidity;BME280_pressure;Samples;Min_cycle;Max_cycle;Signal;HPM_P1;HPM_P2
2022/10/28 00:01:25;;;;;;;12.23;2.97;;;15.50;99.90;;;;;;5071429;28;20596;-58
2022/10/28 00:03:53;;;;;;;13.33;3.10;;;15.50;99.90;;;;;;5070998;28;20212;-58
2022/10/28 00:06:21;;;;;;;8.47;2.50;;;15.40;99.90;;;;;;5071573;28;20205;-58
2022/10/28 00:08:48;;;;;;;5.80;2.33;;;15.30;99.90;;;;;;5071469;28;20205;-58
2022/10/28 00:11:18;;;;;;;9.90;2.87;;;15.30;99.90;;;;;;5071396;28;20619;-58
2022/10/28 00:13:46;;;;;;;7.73;2.53;;;15.20;99.90;;;;;;5073629;28;20205;-57
2022/10/28 00:16:15;;;;;;;8.30;2.83;;;15.20;99.90;;;;;;5075697;28;20205;-58
2022/10/28 00:18:42;;;;;;;6.57;2.70;;;15.10;99.90;;;;;;5075460;28;20236;-57
2022/10/28 00:21:11;;;;;;;6.47;2.40;;;15.20;99.90;;;;;;5075362;28;20236;-58
2022/10/28 00:23:37;;;;;;;7.87;2.40;;;15.10;99.90;;;;;;5074614;28;20204;-58
2022/10/28 00:26:06;;;;;;;12.77;3.30;;;15.20;99.90;;;;;;5074945;28;20687;-58
2022/10/28 00:28:34;;;;;;;8.87;2.97;;;15.10;99.90;;;;;;5074763;28;20208;-57
2022/10/28 00:31:06;;;;;;;8.97;2.70;;;15.00;99.90;;;;;;5074837;28;20735;-57
2022/10/28 00:33:33;;;;;;;8.13;2.90;;;15.00;99.90;;;;;;5074567;28;20216;-58
2022/10/28 00:36:08;;;;;;;5.70;2.77;;;15.00;99.90;;;;;;5074849;28;20205;-58
2022/10/28 00:38:35;;;;;;;6.53;3.00;;;15.00;99.90;;;;;;5074902;28;20232;-58
2022/10/28 00:41:02;;;;;;;9.00;2.80;;;14.90;99.90;;;;;;5074746;28;20224;-58
2022/10/28 00:43:38;;;;;;;5.13;2.50;;;14.90;99.90;;;;;;5074124;28;20561;-58
2022/10/28 00:46:12;;;;;;;7.73;3.10;;;15.00;99.90;;;;;;5074809;28;20209;-58
2022/10/28 00:48:40;;;;;;;7.43;3.27;;;15.10;99.90;;;;;;5074541;28;20212;-58
2022/10/28 00:51:08;;;;;;;6.77;2.90;;;15.00;99.90;;;;;;5074359;28;20264;-58
2022/10/28 00:53:35;;;;;;;5.53;2.40;;;15.00;99.90;;;;;;5074084;28;20676;-58
2022/10/28 00:56:03;;;;;;;9.77;3.20;;;15.00;99.90;;;;;;5074552;28;20208;-58
2022/10/28 00:58:31;;;;;;;10.90;3.43;;;15.00;99.90;;;;;;5074654;28;20213;-58
2022/10/28 01:00:59;;;;;;;9.07;3.10;;;15.00;99.90;;;;;;5074188;28;20700;-58
2022/10/28 01:03:26;;;;;;;14.70;2.77;;;15.00;99.90;;;;;;5073532;28;20723;-58
2022/10/28 01:05:53;;;;;;;8.67;3.10;;;15.00;99.90;;;;;;5074140;28;20311;-57
2022/10/28 01:08:20;;;;;;;7.07;2.57;;;15.00;99.90;;;;;;5074091;28;20227;-58
2022/10/28 01:11:15;;;;;;;10.30;3.10;;;15.10;99.90;;;;;;5074320;28;20568;-58
2022/10/28 01:13:54;;;;;;;9.13;3.20;;;15.20;99.90;;;;;;5073631;28;20729;-57
2022/10/28 01:16:31;;;;;;;6.80;3.00;;;15.20;99.90;;;;;;5074093;28;20211;-58
2022/10/28 01:19:20;;;;;;;5.93;2.73;;;15.40;99.90;;;;;;5074239;28;20215;-58
2022/10/28 01:22:05;;;;;;;6.87;2.90;;;15.60;99.90;;;;;;5074205;28;20229;-58
2022/10/28 01:24:50;;;;;;;5.53;3.17;;;15.70;99.90;;;;;;5072526;28;20215;-58
2022/10/28 01:27:55;;;;;;;8.13;3.13;;;15.90;99.90;;;;;;5073965;28;20259;-58
2022/10/28 01:30:24;;;;;;;16.20;3.50;;;15.90;99.90;;;;;;5074046;28;20232;-58
2022/10/28 01:32:59;;;;;;;7.22;3.10;;;16.00;99.90;;;;;;5074007;28;20236;-57
2022/10/28 01:35:32;;;;;;;8.50;3.03;;;16.00;99.90;;;;;;5073997;28;20615;-58
2022/10/28 01:38:15;;;;;;;8.45;2.83;;;16.00;99.90;;;;;;5073986;28;20213;-57
2022/10/28 01:40:47;;;;;;;7.88;2.88;;;16.00;99.90;;;;;;5073878;28;20236;-57
2022/10/28 01:43:20;;;;;;;6.67;3.07;;;15.90;99.90;;;;;;5072907;28;20710;-58
2022/10/28 01:45:53;;;;;;;10.90;2.63;;;15.90;99.90;;;;;;5073783;28;20212;-58
2022/10/28 01:48:24;;;;;;;9.70;3.53;;;15.70;99.90;;;;;;5074087;28;20213;-58
2022/10/28 01:50:55;;;;;;;12.20;3.00;;;15.60;99.90;;;;;;5083838;22;20229;-55
2022/10/28 01:53:28;;;;;;;7.40;3.08;;;15.50;99.90;;;;;;5054096;28;20205;-55
2022/10/28 01:55:59;;;;;;;11.23;3.17;;;15.40;99.90;;;;;;5054374;28;20293;-55
2022/10/28 01:58:30;;;;;;;8.80;3.00;;;15.30;99.90;;;;;;5054423;28;20205;-55
2022/10/28 02:00:58;;;;;;;13.18;3.10;;;15.30;99.90;;;;;;5055633;28;20221;-55
2022/10/28 02:03:27;;;;;;;8.33;2.90;;;15.30;99.90;;;;;;5055645;28;20605;-55
2022/10/28 02:05:56;;;;;;;9.85;3.05;;;15.30;99.90;;;;;;5054642;28;20213;-55
2022/10/28 02:08:43;;;;;;;7.93;2.97;;;15.30;99.90;;;;;;5054444;28;20216;-55
2022/10/28 02:11:31;;;;;;;7.33;2.67;;;15.20;99.90;;;;;;5054312;28;20235;-55
2022/10/28 02:14:07;;;;;;;6.78;2.90;;;15.10;99.90;;;;;;5053554;28;20209;-55
2022/10/28 02:16:43;;;;;;;5.97;3.10;;;14.90;99.90;;;;;;5054210;28;20223;-55
2022/10/28 02:19:19;;;;;;;9.20;2.80;;;14.80;99.90;;;;;;5054298;28;20205;-56
2022/10/28 02:21:55;;;;;;;8.13;2.70;;;14.80;99.90;;;;;;5053893;28;20248;-55
2022/10/28 02:24:29;;;;;;;8.83;3.03;;;14.80;99.90;;;;;;5053047;28;20209;-55
2022/10/28 02:27:01;;;;;;;9.67;2.77;;;14.80;99.90;;;;;;5053524;28;20235;-55
2022/10/28 02:29:33;;;;;;;5.23;2.67;;;14.70;99.90;;;;;;5053273;28;20627;-56
2022/10/28 02:32:05;;;;;;;7.57;2.83;;;14.70;99.90;;;;;;5053702;28;20205;-55
2022/10/28 02:34:37;;;;;;;8.43;3.13;;;14.60;99.90;;;;;;5053091;28;20216;-55
2022/10/28 02:37:10;;;;;;;8.73;2.90;;;14.60;99.90;;;;;;5053133;28;20206;-55
2022/10/28 02:39:41;;;;;;;8.37;2.83;;;14.60;99.90;;;;;;5053205;28;20673;-55
2022/10/28 02:42:15;;;;;;;6.10;3.40;;;14.60;99.90;;;;;;5053096;28;20221;-55
2022/10/28 02:44:47;;;;;;;9.83;2.97;;;14.80;99.90;;;;;;5052982;28;20206;-55
2022/10/28 02:47:19;;;;;;;10.75;3.10;;;14.80;99.90;;;;;;5053054;28;20583;-55
2022/10/28 02:49:53;;;;;;;6.00;2.70;;;14.80;99.90;;;;;;5052944;28;20248;-55
2022/10/28 02:52:22;;;;;;;10.17;3.00;;;14.80;99.90;;;;;;5053653;28;20285;-55
2022/10/28 02:54:54;;;;;;;5.97;3.10;;;14.80;99.90;;;;;;5053103;28;20208;-55
2022/10/28 02:57:24;;;;;;;8.20;2.70;;;14.80;99.90;;;;;;5053606;28;20241;-56
2022/10/28 02:59:56;;;;;;;8.03;3.03;;;14.80;99.90;;;;;;5053076;28;20230;-56
2022/10/28 03:02:24;;;;;;;9.93;3.23;;;14.70;99.90;;;;;;5052888;28;20230;-55
2022/10/28 03:04:52;;;;;;;6.13;2.87;;;14.60;99.90;;;;;;5052435;28;20213;-55
2022/10/28 03:07:19;;;;;;;7.70;2.73;;;14.50;99.90;;;;;;5052905;28;20213;-54
2022/10/28 03:09:46;;;;;;;7.57;2.90;;;14.50;99.90;;;;;;5052814;28;20232;-55
2022/10/28 03:12:14;;;;;;;7.53;3.23;;;14.40;99.90;;;;;;5052920;28;20209;-55
2022/10/28 03:14:41;;;;;;;6.80;3.07;;;14.40;99.90;;;;;;5052460;28;20205;-55
2022/10/28 03:17:08;;;;;;;9.37;3.10;;;14.40;99.90;;;;;;5052588;28;20562;-55
2022/10/28 03:19:35;;;;;;;9.73;3.20;;;14.70;99.90;;;;;;5052413;28;20253;-55
2022/10/28 03:22:03;;;;;;;6.13;3.17;;;14.80;99.90;;;;;;5052513;28;20209;-55
2022/10/28 03:24:30;;;;;;;9.90;3.03;;;14.90;99.90;;;;;;5051919;28;20206;-55
2022/10/28 03:26:57;;;;;;;7.67;2.50;;;14.90;99.90;;;;;;5052475;28;20209;-55
2022/10/28 03:29:24;;;;;;;9.17;3.20;;;15.00;99.90;;;;;;5052629;28;20649;-55
2022/10/28 03:31:53;;;;;;;12.13;3.20;;;14.90;99.90;;;;;;5052745;28;20693;-55
2022/10/28 03:34:20;;;;;;;6.53;2.90;;;14.90;99.90;;;;;;5052252;28;20198;-55
2022/10/28 03:36:47;;;;;;;7.97;3.47;;;15.00;99.90;;;;;;5053068;28;20695;-56
2022/10/28 03:39:15;;;;;;;8.73;3.13;;;15.00;99.90;;;;;;5052603;28;20220;-55
2022/10/28 03:41:42;;;;;;;7.77;3.03;;;15.10;99.90;;;;;;5053474;28;20220;-54
2022/10/28 03:44:09;;;;;;;9.43;4.07;;;15.10;99.90;;;;;;5054073;28;20581;-54
2022/10/28 03:46:36;;;;;;;7.00;3.17;;;15.10;99.90;;;;;;5054891;28;20212;-57
2022/10/28 03:49:03;;;;;;;7.40;2.90;;;15.20;99.90;;;;;;5059899;28;20201;-55
2022/10/28 03:51:29;;;;;;;6.53;3.13;;;15.20;99.90;;;;;;5059063;28;20229;-55
2022/10/28 03:53:56;;;;;;;7.40;3.17;;;15.20;99.90;;;;;;5058875;28;20229;-56
2022/10/28 03:56:25;;;;;;;5.90;2.73;;;15.10;99.90;;;;;;5059082;28;20217;-55
2022/10/28 03:58:51;;;;;;;8.00;3.13;;;15.00;99.90;;;;;;5059104;28;20296;-56
2022/10/28 04:01:18;;;;;;;10.23;3.07;;;15.10;99.90;;;;;;5058880;28;20265;-57
2022/10/28 04:03:45;;;;;;;6.17;2.87;;;15.10;99.90;;;;;;5058255;28;20236;-56
2022/10/28 04:06:13;;;;;;;10.07;3.60;;;15.20;99.90;;;;;;5059212;28;20204;-56
2022/10/28 04:08:40;;;;;;;7.27;3.13;;;15.30;99.90;;;;;;5059232;28;20557;-56
2022/10/28 04:11:07;;;;;;;7.37;3.23;;;15.50;99.90;;;;;;5059105;28;20290;-57
2022/10/28 04:13:35;;;;;;;8.47;3.10;;;15.50;99.90;;;;;;5059068;28;20205;-56
2022/10/28 04:16:02;;;;;;;6.38;2.80;;;15.60;99.90;;;;;;5059829;28;20232;-56
2022/10/28 04:18:28;;;;;;;8.15;2.80;;;15.50;99.90;;;;;;5058995;28;20783;-56
2022/10/28 04:20:55;;;;;;;7.00;2.97;;;15.30;99.90;;;;;;5058957;28;20566;-56
2022/10/28 04:23:22;;;;;;;9.23;3.37;;;15.10;99.90;;;;;;5058386;28;20221;-57
2022/10/28 04:25:52;;;;;;;7.90;3.33;;;15.20;99.90;;;;;;5058735;28;20282;-56
2022/10/28 04:28:19;;;;;;;8.52;3.40;;;15.20;99.90;;;;;;5058454;28;20678;-56
2022/10/28 04:30:48;;;;;;;11.27;3.30;;;15.40;99.90;;;;;;5058163;28;20225;-56
2022/10/28 04:33:15;;;;;;;10.25;3.40;;;15.50;99.90;;;;;;5058264;28;20214;-56
2022/10/28 04:35:42;;;;;;;7.97;3.40;;;15.50;99.90;;;;;;5058248;28;20201;-57
2022/10/28 04:38:09;;;;;;;13.18;4.07;;;15.70;99.90;;;;;;5058550;28;20198;-56
2022/10/28 04:40:36;;;;;;;8.85;3.38;;;15.70;99.90;;;;;;5058630;28;20232;-56
2022/10/28 04:43:03;;;;;;;8.27;3.43;;;15.70;99.90;;;;;;5058381;28;20232;-56
2022/10/28 04:45:31;;;;;;;9.30;3.60;;;15.80;99.90;;;;;;5057935;28;20703;-56
2022/10/28 04:48:00;;;;;;;8.67;3.60;;;15.70;99.90;;;;;;5058593;28;20216;-57
2022/10/28 04:50:27;;;;;;;9.07;3.23;;;15.70;99.90;;;;;;5058735;28;20332;-56
2022/10/28 04:52:54;;;;;;;10.05;3.30;;;15.70;99.90;;;;;;5058371;28;20296;-56
2022/10/28 04:55:21;;;;;;;7.60;2.90;;;15.70;99.90;;;;;;5058164;28;20210;-56
2022/10/28 04:57:54;;;;;;;7.30;2.90;;;15.70;99.90;;;;;;5058215;28;20213;-56
2022/10/28 05:00:21;;;;;;;10.17;2.97;;;15.70;99.90;;;;;;5055717;28;20236;-56
2022/10/28 05:02:48;;;;;;;14.60;3.38;;;15.80;99.90;;;;;;5054957;28;20229;-55
2022/10/28 05:05:17;;;;;;;8.02;2.85;;;15.80;99.90;;;;;;5054972;28;20581;-56
2022/10/28 05:07:44;;;;;;;9.35;2.97;;;15.80;99.90;;;;;;5055182;28;20245;-56
2022/10/28 05:10:14;;;;;;;7.63;3.33;;;15.90;99.90;;;;;;5054985;28;20232;-56
2022/10/28 05:12:42;;;;;;;12.13;3.30;;;16.00;99.90;;;;;;5055289;28;20228;-55
2022/10/28 05:15:11;;;;;;;4.90;2.80;;;16.00;99.90;;;;;;5054998;28;20209;-56
2022/10/28 05:17:39;;;;;;;7.65;3.00;;;16.10;99.90;;;;;;5055258;28;20205;-55
2022/10/28 05:20:07;;;;;;;9.32;3.03;;;16.10;99.90;;;;;;5055072;28;20222;-55
2022/10/28 05:22:36;;;;;;;14.10;3.43;;;16.00;99.90;;;;;;5055426;28;20214;-55
2022/10/28 05:25:04;;;;;;;12.98;3.28;;;16.10;99.90;;;;;;5055461;28;20209;-56
2022/10/28 05:27:31;;;;;;;6.22;2.80;;;16.10;99.90;;;;;;5057194;28;20213;-56
2022/10/28 05:29:58;;;;;;;6.07;2.77;;;16.10;99.90;;;;;;5056458;28;20316;-55
2022/10/28 05:32:25;;;;;;;9.43;3.07;;;15.90;99.90;;;;;;5055279;28;20210;-56
2022/10/28 05:34:52;;;;;;;10.43;3.23;;;15.70;99.90;;;;;;5054647;28;20268;-55
2022/10/28 05:37:19;;;;;;;11.07;3.30;;;15.60;99.90;;;;;;5055043;28;20212;-56
2022/10/28 05:39:47;;;;;;;7.65;2.70;;;15.60;99.90;;;;;;5054959;28;20233;-55
2022/10/28 05:42:14;;;;;;;6.97;2.90;;;15.60;99.90;;;;;;5054439;28;20206;-56
2022/10/28 05:44:40;;;;;;;7.10;3.00;;;15.70;99.90;;;;;;5053969;28;20229;-55
2022/10/28 05:47:07;;;;;;;8.48;3.28;;;15.70;99.90;;;;;;5053958;28;20205;-56
2022/10/28 05:49:34;;;;;;;7.93;3.20;;;15.90;99.90;;;;;;5054292;28;20233;-55
2022/10/28 05:52:01;;;;;;;10.85;3.22;;;16.00;99.90;;;;;;5054305;28;20593;-55
2022/10/28 05:54:28;;;;;;;11.15;2.78;;;16.10;99.90;;;;;;5053894;28;20229;-56
2022/10/28 05:56:56;;;;;;;14.57;3.72;;;16.10;99.90;;;;;;5054466;28;20304;-56
2022/10/28 05:59:23;;;;;;;12.82;2.80;;;16.20;99.90;;;;;;5054415;28;20209;-57
2022/10/28 06:01:50;;;;;;;11.13;3.17;;;16.30;99.90;;;;;;5054118;28;20665;-56
2022/10/28 06:04:17;;;;;;;9.70;2.72;;;16.30;99.90;;;;;;5053930;28;20229;-56
2022/10/28 06:06:44;;;;;;;7.93;3.10;;;16.30;99.90;;;;;;5054686;28;20215;-56
2022/10/28 06:09:11;;;;;;;8.20;3.20;;;16.30;99.90;;;;;;5053965;28;20677;-56
2022/10/28 06:11:37;;;;;;;6.57;2.92;;;16.30;99.90;;;;;;5053571;28;20212;-57
2022/10/28 06:14:05;;;;;;;11.50;3.15;;;16.30;99.90;;;;;;5053855;28;20210;-57
2022/10/28 06:16:32;;;;;;;9.93;3.40;;;16.20;99.90;;;;;;5053705;28;20579;-56
2022/10/28 06:18:59;;;;;;;8.50;3.05;;;16.20;99.90;;;;;;5053960;28;20296;-56
2022/10/28 06:21:26;;;;;;;10.25;3.25;;;16.10;99.90;;;;;;5054150;28;20308;-57
2022/10/28 06:23:53;;;;;;;14.68;3.05;;;16.20;99.90;;;;;;5054063;28;20221;-57
2022/10/28 06:26:19;;;;;;;10.50;2.88;;;16.10;99.90;;;;;;5054354;28;20210;-56
2022/10/28 06:28:48;;;;;;;11.07;3.28;;;16.20;99.90;;;;;;5054514;28;20581;-56
2022/10/28 06:31:16;;;;;;;9.52;2.92;;;16.20;99.90;;;;;;5055260;28;20233;-57
2022/10/28 06:33:43;;;;;;;8.95;2.55;;;16.20;99.90;;;;;;5054532;28;20698;-55
2022/10/28 06:36:10;;;;;;;10.15;2.88;;;16.30;99.90;;;;;;5055135;28;20209;-55
2022/10/28 06:38:37;;;;;;;6.82;2.60;;;16.30;99.90;;;;;;5051084;28;20448;-56
2022/10/28 06:41:04;;;;;;;14.30;3.20;;;16.30;99.90;;;;;;5052349;28;20229;-55
2022/10/28 06:43:31;;;;;;;14.60;3.50;;;16.40;99.90;;;;;;5052798;28;20225;-56
2022/10/28 06:46:01;;;;;;;7.93;2.60;;;16.50;99.90;;;;;;5052611;28;21020;-56
2022/10/28 06:48:30;;;;;;;6.40;2.55;;;16.50;99.90;;;;;;5054024;28;20263;-58
2022/10/28 06:50:57;;;;;;;11.05;3.25;;;16.50;99.90;;;;;;5054517;28;20244;-56
2022/10/28 06:53:24;;;;;;;9.48;2.90;;;16.60;99.90;;;;;;5053438;28;20202;-55
2022/10/28 06:55:55;;;;;;;8.60;2.65;;;16.70;99.90;;;;;;5052562;28;20255;-56
2022/10/28 06:58:22;;;;;;;7.22;2.50;;;16.80;99.90;;;;;;5052598;28;20343;-55
2022/10/28 07:00:49;;;;;;;11.35;3.00;;;16.70;99.90;;;;;;5052810;28;20668;-57
2022/10/28 07:03:17;;;;;;;12.98;3.22;;;16.90;99.90;;;;;;5051768;28;20231;-57
2022/10/28 07:05:47;;;;;;;6.45;3.08;;;16.90;99.90;;;;;;5051877;28;20263;-57
2022/10/28 07:08:15;;;;;;;7.15;2.80;;;16.90;99.90;;;;;;5052935;28;20202;-57
2022/10/28 07:10:42;;;;;;;11.20;3.05;;;17.00;99.90;;;;;;5053013;28;20283;-58
2022/10/28 07:13:09;;;;;;;8.35;2.90;;;17.10;99.90;;;;;;5052668;28;20205;-57
2022/10/28 07:15:36;;;;;;;6.80;3.10;;;17.10;99.90;;;;;;5052256;28;20571;-56
2022/10/28 07:18:03;;;;;;;13.23;2.90;;;17.20;99.90;;;;;;5052525;28;20824;-57
2022/10/28 07:20:31;;;;;;;8.27;3.05;;;17.30;99.90;;;;;;5053756;28;20225;-59
2022/10/28 07:23:01;;;;;;;7.93;2.85;;;17.50;99.90;;;;;;5051419;28;20232;-57
2022/10/28 07:25:30;;;;;;;10.00;2.60;;;17.60;99.90;;;;;;5053157;28;20225;-56
2022/10/28 07:27:57;;;;;;;7.57;2.60;;;17.70;99.90;;;;;;5055050;28;20662;-56
2022/10/28 07:30:24;;;;;;;9.02;2.53;;;17.70;99.90;;;;;;5054676;28;20225;-57
2022/10/28 07:32:52;;;;;;;5.20;2.80;;;17.90;99.90;;;;;;5054902;28;20233;-57
2022/10/28 07:35:19;;;;;;;6.18;2.40;;;18.20;99.90;;;;;;5053659;28;20198;-56
2022/10/28 07:37:46;;;;;;;7.32;2.67;;;18.40;99.90;;;;;;5054256;28;20205;-57
2022/10/28 07:40:15;;;;;;;10.38;2.80;;;18.70;99.90;;;;;;5054488;28;20236;-57
2022/10/28 07:42:41;;;;;;;6.60;2.63;;;18.90;99.90;;;;;;5054675;28;20205;-56
2022/10/28 07:45:09;;;;;;;8.90;2.75;;;19.00;99.90;;;;;;5054956;28;20275;-57
2022/10/28 07:47:35;;;;;;;6.78;2.20;;;19.20;99.90;;;;;;5055465;28;20692;-57
2022/10/28 07:50:03;;;;;;;5.72;2.67;;;19.40;99.90;;;;;;5081041;22;20221;-57
2022/10/28 07:52:29;;;;;;;9.10;2.85;;;19.60;99.90;;;;;;5071721;28;20200;-58
2022/10/28 07:54:56;;;;;;;7.03;2.65;;;19.80;99.90;;;;;;5071158;28;20201;-59
2022/10/28 07:57:24;;;;;;;7.82;2.78;;;19.90;99.90;;;;;;5071666;28;20201;-58
2022/10/28 07:59:51;;;;;;;12.00;2.80;;;20.00;99.90;;;;;;5071766;28;20237;-58
2022/10/28 08:02:20;;;;;;;11.07;2.67;;;20.10;99.90;;;;;;5071453;28;20211;-58
2022/10/28 08:04:47;;;;;;;6.03;2.95;;;20.10;99.90;;;;;;5071038;28;20235;-58
2022/10/28 08:07:15;;;;;;;14.25;4.82;;;20.20;99.90;;;;;;5071690;28;20212;-58
2022/10/28 08:09:42;;;;;;;9.75;3.35;;;20.20;99.90;;;;;;5071716;28;20205;-59
2022/10/28 08:12:12;;;;;;;11.10;3.40;;;20.30;99.90;;;;;;5071672;28;20205;-58
2022/10/28 08:14:40;;;;;;;9.07;2.65;;;20.30;99.90;;;;;;5070828;28;20208;-58
2022/10/28 08:17:07;;;;;;;8.85;3.13;;;20.20;99.90;;;;;;5071199;28;20680;-59
2022/10/28 08:19:34;;;;;;;8.25;3.53;;;20.20;99.90;;;;;;5071522;28;20205;-58
2022/10/28 08:22:01;;;;;;;9.75;3.38;;;20.00;99.90;;;;;;5071683;28;20201;-59
2022/10/28 08:24:28;;;;;;;13.52;3.38;;;20.00;99.90;;;;;;5070881;28;20227;-58
2022/10/28 08:26:55;;;;;;;11.82;3.65;;;20.00;99.90;;;;;;5071330;28;20213;-58
2022/10/28 08:29:22;;;;;;;8.68;3.83;;;20.00;99.90;;;;;;5071391;28;20204;-58
2022/10/28 08:31:50;;;;;;;6.57;3.38;;;20.00;99.90;;;;;;5071857;28;20237;-58
2022/10/28 08:34:16;;;;;;;10.25;3.45;;;20.00;99.90;;;;;;5072487;28;20640;-59
2022/10/28 08:36:43;;;;;;;8.32;3.20;;;20.10;99.90;;;;;;5075004;28;20216;-58
2022/10/28 08:39:10;;;;;;;9.60;4.07;;;20.20;99.90;;;;;;5075162;28;20295;-58
2022/10/28 08:41:40;;;;;;;6.72;3.00;;;20.20;99.90;;;;;;5074789;28;20229;-59
2022/10/28 08:44:40;;;;;;;5.68;2.60;;;20.20;99.90;;;;;;5074519;28;20224;-59
2022/10/28 08:47:17;;;;;;;11.63;2.97;;;20.30;99.90;;;;;;5068320;28;20215;-59
2022/10/28 08:49:45;;;;;;;12.27;2.85;;;20.30;99.90;;;;;;5074656;28;20262;-58
2022/10/28 08:52:23;;;;;;;10.23;3.33;;;20.40;99.90;;;;;;5074967;28;20220;-57
2022/10/28 08:54:53;;;;;;;8.30;3.70;;;20.50;99.90;;;;;;5074700;28;20209;-57
2022/10/28 08:57:24;;;;;;;8.60;3.42;;;20.70;99.90;;;;;;5075257;28;20582;-55
2022/10/28 08:59:53;;;;;;;7.45;3.15;;;20.70;99.90;;;;;;5074617;28;20229;-56
2022/10/28 09:02:23;;;;;;;12.82;3.42;;;20.80;99.90;;;;;;5074715;28;20216;-57
2022/10/28 09:04:56;;;;;;;7.43;2.95;;;20.90;99.90;;;;;;5073636;28;20224;-56
2022/10/28 09:07:24;;;;;;;9.98;3.03;;;21.00;99.90;;;;;;5074824;28;20209;-57
2022/10/28 09:09:53;;;;;;;7.55;3.05;;;21.00;99.90;;;;;;5074744;28;20251;-57
2022/10/28 09:12:36;;;;;;;9.75;2.97;;;20.90;99.90;;;;;;5074555;28;20300;-57
2022/10/28 09:15:18;;;;;;;9.10;3.40;;;20.90;99.90;;;;;;5073912;28;20204;-57
2022/10/28 09:17:53;;;;;;;8.00;2.90;;;20.90;99.90;;;;;;5074379;28;20593;-57
2022/10/28 09:20:25;;;;;;;7.80;3.30;;;21.00;99.90;;;;;;5074413;28;20238;-57
2022/10/28 09:22:56;;;;;;;7.38;3.08;;;21.10;99.90;;;;;;5074382;28;20607;-57
2022/10/28 09:25:31;;;;;;;9.05;3.25;;;21.20;99.90;;;;;;5073497;28;20227;-57
2022/10/28 09:28:26;;;;;;;7.60;2.80;;;21.30;99.90;;;;;;5073849;28;20236;-55
2022/10/28 09:31:01;;;;;;;10.18;2.97;;;21.40;99.90;;;;;;5073916;28;20235;-56
2022/10/28 09:33:45;;;;;;;9.20;2.92;;;21.60;99.90;;;;;;5074034;28;20291;-56
2022/10/28 09:36:18;;;;;;;8.10;2.58;;;21.80;99.90;;;;;;5073136;28;20584;-56
2022/10/28 09:38:45;;;;;;;7.40;2.63;;;21.90;99.90;;;;;;5074115;28;20216;-56
2022/10/28 09:41:17;;;;;;;5.40;2.67;;;22.00;99.90;;;;;;5073861;28;20229;-56
2022/10/28 09:43:48;;;;;;;9.27;2.85;;;22.00;99.90;;;;;;5073811;28;20204;-55
2022/10/28 09:46:17;;;;;;;7.07;2.90;;;21.80;99.90;;;;;;5072031;28;20294;-55
2022/10/28 09:48:48;;;;;;;7.57;3.78;;;21.70;99.90;;;;;;5073346;28;20706;-56
2022/10/28 09:51:23;;;;;;;11.45;3.17;;;21.60;99.90;;;;;;5073532;28;20236;-55
2022/10/28 09:53:53;;;;;;;13.70;3.22;;;21.10;99.90;;;;;;5073566;28;20227;-53
2022/10/28 09:56:20;;;;;;;6.45;2.80;;;20.80;99.90;;;;;;5073074;28;20212;-52
2022/10/28 09:58:48;;;;;;;7.43;2.92;;;20.60;99.90;;;;;;5073406;28;20205;-52
2022/10/28 10:01:16;;;;;;;7.18;2.20;;;20.70;99.90;;;;;;5073202;28;20289;-52
2022/10/28 10:03:47;;;;;;;7.30;2.55;;;20.80;99.90;;;;;;5073382;28;20234;-52
2022/10/28 10:06:18;;;;;;;7.63;2.38;;;20.70;99.90;;;;;;5072534;28;20594;-52
2022/10/28 10:08:46;;;;;;;8.82;2.50;;;20.70;99.90;;;;;;5073401;28;20212;-52
2022/10/28 10:11:21;;;;;;;9.13;2.85;;;20.70;99.90;;;;;;5073362;28;20229;-52
2022/10/28 10:13:50;;;;;;;6.55;2.60;;;20.80;99.90;;;;;;5073479;28;20587;-52
2022/10/28 10:16:21;;;;;;;4.72;2.70;;;21.00;99.90;;;;;;5072530;28;20208;-53
2022/10/28 10:18:52;;;;;;;5.72;2.63;;;21.10;99.90;;;;;;5073266;28;20232;-53
2022/10/28 10:21:40;;;;;;;7.47;2.42;;;21.20;99.90;;;;;;5072967;28;20228;-53
2022/10/28 10:24:22;;;;;;;4.40;1.95;;;21.40;99.90;;;;;;5072340;28;20209;-53
2022/10/28 10:26:49;;;;;;;9.73;2.30;;;21.60;99.90;;;;;;5072999;28;20208;-51
2022/10/28 10:29:15;;;;;;;7.15;2.40;;;21.80;99.90;;;;;;5072609;28;20208;-52
2022/10/28 10:31:43;;;;;;;10.10;2.47;;;22.20;99.90;;;;;;5072803;28;20287;-53
2022/10/28 10:34:22;;;;;;;8.25;2.25;;;22.70;99.90;;;;;;5072062;28;20214;-53
2022/10/28 10:36:50;;;;;;;3.88;1.90;;;23.00;99.90;;;;;;5072404;28;20204;-51
2022/10/28 10:39:25;;;;;;;7.53;2.10;;;23.40;99.90;;;;;;5072697;28;20209;-52
2022/10/28 10:41:54;;;;;;;5.03;2.10;;;23.80;99.90;;;;;;5072360;28;20281;-52
2022/10/28 10:44:30;;;;;;;6.70;2.00;;;24.10;99.90;;;;;;5072029;28;20290;-54
2022/10/28 10:47:22;;;;;;;8.75;2.90;;;24.40;99.90;;;;;;5072566;28;20208;-51
2022/10/28 10:49:50;;;;;;;6.10;2.50;;;24.60;99.90;;;;;;5071839;28;20684;-52
2022/10/28 10:52:24;;;;;;;8.50;2.00;;;24.70;99.90;;;;;;5072239;28;20213;-51
2022/10/28 10:55:01;;;;;;;9.45;2.95;;;24.80;99.90;;;;;;5071450;28;20633;-52
2022/10/28 10:57:29;;;;;;;7.43;2.97;;;24.90;99.90;;;;;;5072182;28;20204;-52
2022/10/28 10:59:56;;;;;;;5.93;3.78;;;24.60;99.90;;;;;;5072424;28;20235;-52
2022/10/28 11:02:26;;;;;;;8.02;3.08;;;24.20;99.90;;;;;;5072499;28;20217;-50
2022/10/28 11:04:57;;;;;;;5.50;2.17;;;24.20;99.90;;;;;;5071272;28;20724;-52
2022/10/28 11:07:24;;;;;;;8.05;2.20;;;24.10;99.90;;;;;;5072279;28;20279;-51
2022/10/28 11:09:51;;;;;;;9.45;1.98;;;24.10;99.90;;;;;;5071585;28;20265;-54
2022/10/28 11:12:27;;;;;;;11.93;2.33;;;24.00;99.90;;;;;;5072180;28;20213;-51
2022/10/28 11:14:56;;;;;;;8.93;2.63;;;24.00;99.90;;;;;;5071528;28;20668;-54
2022/10/28 11:17:25;;;;;;;5.80;2.17;;;24.00;99.90;;;;;;5070355;28;20232;-58
2022/10/28 11:19:56;;;;;;;9.93;2.08;;;23.90;99.90;;;;;;5066014;28;20587;-60
2022/10/28 11:22:37;;;;;;;10.63;2.17;;;23.90;99.90;;;;;;5070813;28;20219;-61
2022/10/28 11:25:32;;;;;;;6.85;2.35;;;24.10;99.90;;;;;;5070139;28;20282;-58
2022/10/28 11:28:11;;;;;;;5.85;1.92;;;24.40;99.90;;;;;;5070523;28;20209;-57
2022/10/28 11:30:52;;;;;;;4.72;2.00;;;24.70;99.90;;;;;;5070401;28;20229;-58
2022/10/28 11:33:21;;;;;;;7.28;2.50;;;24.90;99.90;;;;;;5070988;28;20204;-59
2022/10/28 11:35:57;;;;;;;9.50;2.47;;;25.00;99.90;;;;;;5069738;28;20201;-59
2022/10/28 11:38:51;;;;;;;5.35;2.05;;;25.20;99.90;;;;;;5071107;28;20600;-57
2022/10/28 11:41:27;;;;;;;8.55;3.28;;;25.20;99.90;;;;;;5070896;28;20267;-57
2022/10/28 11:43:55;;;;;;;8.10;2.42;;;25.10;99.90;;;;;;5071567;28;20562;-57
2022/10/28 11:46:38;;;;;;;6.65;2.28;;;24.90;99.90;;;;;;5070228;28;20229;-59
2022/10/28 11:49:35;;;;;;;8.35;2.75;;;24.90;99.90;;;;;;5070397;28;20674;-59
2022/10/28 11:52:16;;;;;;;5.00;2.22;;;25.00;99.90;;;;;;5070930;28;20201;-58
2022/10/28 11:54:57;;;;;;;8.45;2.60;;;24.90;99.90;;;;;;5070368;28;20204;-59
2022/10/28 11:57:37;;;;;;;7.32;2.60;;;25.00;99.90;;;;;;5070350;28;20223;-57
2022/10/28 12:00:25;;;;;;;8.27;2.30;;;25.00;99.90;;;;;;5070178;28;20244;-56
2022/10/28 12:03:18;;;;;;;7.82;2.38;;;25.00;99.90;;;;;;5070770;28;20644;-58
2022/10/28 12:05:50;;;;;;;7.95;2.15;;;25.10;99.90;;;;;;5070856;28;20220;-58
2022/10/28 12:08:32;;;;;;;4.93;2.20;;;25.10;99.90;;;;;;5071164;28;20588;-59
2022/10/28 12:11:18;;;;;;;7.90;3.30;;;25.10;99.90;;;;;;5076894;28;20251;-56
2022/10/28 12:13:51;;;;;;;11.15;3.35;;;24.80;99.90;;;;;;5076781;28;20209;-56
2022/10/28 12:16:25;;;;;;;7.38;4.00;;;24.30;99.90;;;;;;5075525;28;20201;-55
2022/10/28 12:18:56;;;;;;;6.72;2.45;;;23.80;99.90;;;;;;5076276;28;20274;-57
2022/10/28 12:21:31;;;;;;;5.53;1.83;;;23.70;99.90;;;;;;5076375;28;20270;-58
2022/10/28 12:23:59;;;;;;;4.50;1.88;;;23.50;99.90;;;;;;5076268;28;20211;-57
2022/10/28 12:26:34;;;;;;;6.85;2.03;;;23.50;99.90;;;;;;5076167;28;20235;-56
2022/10/28 12:29:04;;;;;;;9.80;2.15;;;23.40;99.90;;;;;;5076378;28;20291;-55
2022/10/28 12:31:37;;;;;;;11.70;2.60;;;23.50;99.90;;;;;;5076267;28;20315;-55
2022/10/28 12:34:08;;;;;;;7.90;2.35;;;23.70;99.90;;;;;;5076142;28;20201;-55
2022/10/28 12:36:41;;;;;;;8.70;2.20;;;24.00;99.90;;;;;;5075771;28;20205;-56
2022/10/28 12:39:17;;;;;;;5.95;2.35;;;24.40;99.90;;;;;;5076145;28;20212;-56
2022/10/28 12:41:49;;;;;;;9.52;4.65;;;24.80;99.90;;;;;;5075868;28;20231;-56
2022/10/28 12:44:20;;;;;;;6.88;2.60;;;25.10;99.90;;;;;;5075895;28;20235;-56
2022/10/28 12:46:55;;;;;;;7.82;3.20;;;25.50;99.90;;;;;;5075997;28;20236;-55
2022/10/28 12:49:35;;;;;;;12.23;3.65;;;25.80;99.90;;;;;;5075684;28;20209;-54
2022/10/28 12:52:09;;;;;;;16.10;3.80;;;26.00;99.90;;;;;;5074630;28;20205;-57
2022/10/28 12:54:47;;;;;;;8.50;3.70;;;26.10;99.90;;;;;;5074478;28;20211;-55
2022/10/28 12:57:18;;;;;;;11.00;3.30;;;26.00;99.90;;;;;;5075084;28;20262;-55
2022/10/28 12:59:48;;;;;;;11.68;2.92;;;26.00;99.90;;;;;;5074620;28;20231;-55
2022/10/28 13:02:19;;;;;;;11.52;2.38;;;26.00;99.90;;;;;;5074242;28;20208;-56
2022/10/28 13:04:46;;;;;;;5.72;2.72;;;26.10;99.90;;;;;;5074042;28;20226;-56